sensor_id;sensor_type;location;lat;lon;timestamp;P1;durP1;ratioP1;P2;durP2;ratioP2
10246;SDS011;5168;47.854;7.944;2023-03-16T00:00:52;2.00;;;1.90;;
10246;SDS011;5168;47.854;7.944;2023-03-16T00:03:18;3.47;;;2.10;;
10246;SDS011;5168;47.854;7.944;2023-03-16T00:05:53;2.30;;;2.10;;
10246;SDS011;5168;47.854;7.944;2023-03-16T00:08:19;3.30;;;1.90;;
10246;SDS011;5168;47.854;7.944;2023-03-16T00:10:45;1.90;;;1.80;;
10246;SDS011;5168;47.854;7.944;2023-03-16T00:13:18;3.03;;;1.90;;
10246;SDS011;5168;47.854;7.944;2023-03-16T00:18:33;2.00;;;1.90;;
10246;SDS011;5168;47.854;7.944;2023-03-16T00:21:03;1.90;;;1.80;;
10246;SDS011;5168;47.854;7.944;2023-03-16T00:23:29;1.80;;;1.70;;
10246;SDS011;5168;47.854;7.944;2023-03-16T00:25:59;1.90;;;1.80;;
10246;SDS011;5168;47.854;7.944;2023-03-16T00:28:30;2.00;;;1.90;;
10246;SDS011;5168;47.854;7.944;2023-03-16T00:31:06;2.20;;;1.83;;
10246;SDS011;5168;47.854;7.944;2023-03-16T00:33:35;2.00;;;1.80;;
10246;SDS011;5168;47.854;7.944;2023-03-16T00:36:02;1.90;;;1.80;;
10246;SDS011;5168;47.854;7.944;2023-03-16T00:38:32;2.40;;;2.10;;
10246;SDS011;5168;47.854;7.944;2023-03-16T00:41:13;1.80;;;1.70;;
10246;SDS011;5168;47.854;7.944;2023-03-16T00:43:40;2.20;;;1.90;;
10246;SDS011;5168;47.854;7.944;2023-03-16T00:46:10;2.00;;;1.80;;
10246;SDS011;5168;47.854;7.944;2023-03-16T00:48:39;1.77;;;1.63;;
10246;SDS011;5168;47.854;7.944;2023-03-16T00:51:06;1.80;;;1.70;;
10246;SDS011;5168;47.854;7.944;2023-03-16T00:53:33;2.00;;;1.90;;
10246;SDS011;5168;47.854;7.944;2023-03-16T00:56:00;1.90;;;1.80;;
10246;SDS011;5168;47.854;7.944;2023-03-16T00:58:28;2.17;;;1.97;;
10246;SDS011;5168;47.854;7.944;2023-03-16T01:00:59;1.90;;;1.80;;
10246;SDS011;5168;47.854;7.944;2023-03-16T01:03:37;2.27;;;1.83;;
10246;SDS011;5168;47.854;7.944;2023-03-16T01:06:04;1.97;;;1.80;;
10246;SDS011;5168;47.854;7.944;2023-03-16T01:08:30;1.83;;;1.73;;
10246;SDS011;5168;47.854;7.944;2023-03-16T01:11:00;1.93;;;1.83;;
10246;SDS011;5168;47.854;7.944;2023-03-16T01:13:30;1.80;;;1.70;;
10246;SDS011;5168;47.854;7.944;2023-03-16T01:15:57;1.90;;;1.80;;
10246;SDS011;5168;47.854;7.944;2023-03-16T01:18:23;2.33;;;1.80;;
10246;SDS011;5168;47.854;7.944;2023-03-16T01:20:49;2.10;;;1.90;;
10246;SDS011;5168;47.854;7.944;2023-03-16T01:23:18;2.07;;;1.90;;
10246;SDS011;5168;47.854;7.944;2023-03-16T01:25:45;3.13;;;2.13;;
10246;SDS011;5168;47.854;7.944;2023-03-16T01:28:21;2.10;;;2.00;;
10246;SDS011;5168;47.854;7.944;2023-03-16T01:30:52;2.03;;;1.93;;
10246;SDS011;5168;47.854;7.944;2023-03-16T01:33:21;2.03;;;1.90;;
10246;SDS011;5168;47.854;7.944;2023-03-16T01:35:52;2.40;;;1.87;;
10246;SDS011;5168;47.854;7.944;2023-03-16T01:38:18;2.53;;;2.00;;
10246;SDS011;5168;47.854;7.944;2023-03-16T01:40:44;1.93;;;1.83;;
10246;SDS011;5168;47.854;7.944;2023-03-16T01:43:10;3.93;;;1.90;;
10246;SDS011;5168;47.854;7.944;2023-03-16T01:48:43;1.83;;;1.73;;
10246;SDS011;5168;47.854;7.944;2023-03-16T01:51:26;1.93;;;1.73;;
10246;SDS011;5168;47.854;7.944;2023-03-16T01:54:43;2.13;;;1.90;;
10246;SDS011;5168;47.854;7.944;2023-03-16T01:57:08;2.30;;;1.93;;
10246;SDS011;5168;47.854;7.944;2023-03-16T02:02:08;2.30;;;2.00;;
10246;SDS011;5168;47.854;7.944;2023-03-16T02:04:37;2.23;;;2.00;;
10246;SDS011;5168;47.854;7.944;2023-03-16T02:07:08;4.00;;;2.00;;
10246;SDS011;5168;47.854;7.944;2023-03-16T02:09:38;1.90;;;1.80;;
10246;SDS011;5168;47.854;7.944;2023-03-16T02:12:07;1.90;;;1.80;;
10246;SDS011;5168;47.854;7.944;2023-03-16T02:14:34;1.90;;;1.80;;
10246;SDS011;5168;47.854;7.944;2023-03-16T02:16:59;2.67;;;2.20;;
10246;SDS011;5168;47.854;7.944;2023-03-16T02:19:33;3.73;;;2.33;;
10246;SDS011;5168;47.854;7.944;2023-03-16T02:22:06;2.20;;;1.90;;
10246;SDS011;5168;47.854;7.944;2023-03-16T02:24:34;2.17;;;2.00;;
10246;SDS011;5168;47.854;7.944;2023-03-16T02:27:02;2.20;;;2.00;;
10246;SDS011;5168;47.854;7.944;2023-03-16T02:32:09;2.33;;;2.00;;
10246;SDS011;5168;47.854;7.944;2023-03-16T02:34:36;1.97;;;1.80;;
10246;SDS011;5168;47.854;7.944;2023-03-16T02:37:03;1.87;;;1.70;;
10246;SDS011;5168;47.854;7.944;2023-03-16T02:39:29;2.07;;;1.97;;
10246;SDS011;5168;47.854;7.944;2023-03-16T02:41:55;2.27;;;2.07;;
10246;SDS011;5168;47.854;7.944;2023-03-16T02:44:22;1.97;;;1.87;;
10246;SDS011;5168;47.854;7.944;2023-03-16T02:46:55;2.03;;;1.90;;
10246;SDS011;5168;47.854;7.944;2023-03-16T02:49:25;3.53;;;2.00;;
10246;SDS011;5168;47.854;7.944;2023-03-16T02:51:56;2.00;;;1.80;;
10246;SDS011;5168;47.854;7.944;2023-03-16T02:54:22;2.30;;;1.93;;
10246;SDS011;5168;47.854;7.944;2023-03-16T02:56:48;1.97;;;1.87;;
10246;SDS011;5168;47.854;7.944;2023-03-16T02:59:15;2.10;;;2.00;;
10246;SDS011;5168;47.854;7.944;2023-03-16T03:01:40;1.77;;;1.67;;
10246;SDS011;5168;47.854;7.944;2023-03-16T03:04:06;2.03;;;1.80;;
10246;SDS011;5168;47.854;7.944;2023-03-16T03:06:32;1.80;;;1.70;;
10246;SDS011;5168;47.854;7.944;2023-03-16T03:08:59;3.13;;;1.97;;
10246;SDS011;5168;47.854;7.944;2023-03-16T03:11:25;2.00;;;1.90;;
10246;SDS011;5168;47.854;7.944;2023-03-16T03:13:52;2.17;;;1.97;;
10246;SDS011;5168;47.854;7.944;2023-03-16T03:16:18;2.77;;;1.90;;
10246;SDS011;5168;47.854;7.944;2023-03-16T03:18:45;2.20;;;1.67;;
10246;SDS011;5168;47.854;7.944;2023-03-16T03:21:11;1.97;;;1.87;;
10246;SDS011;5168;47.854;7.944;2023-03-16T03:23:36;2.80;;;2.20;;
10246;SDS011;5168;47.854;7.944;2023-03-16T03:26:02;1.80;;;1.70;;
10246;SDS011;5168;47.854;7.944;2023-03-16T03:28:28;3.50;;;1.93;;
10246;SDS011;5168;47.854;7.944;2023-03-16T03:30:54;1.83;;;1.73;;
10246;SDS011;5168;47.854;7.944;2023-03-16T03:33:21;1.77;;;1.67;;
10246;SDS011;5168;47.854;7.944;2023-03-16T03:35:52;3.73;;;1.73;;
10246;SDS011;5168;47.854;7.944;2023-03-16T03:38:21;2.13;;;1.80;;
10246;SDS011;5168;47.854;7.944;2023-03-16T03:40:49;1.90;;;1.80;;
10246;SDS011;5168;47.854;7.944;2023-03-16T03:43:15;2.30;;;2.10;;
10246;SDS011;5168;47.854;7.944;2023-03-16T03:45:40;2.20;;;1.90;;
10246;SDS011;5168;47.854;7.944;2023-03-16T03:48:06;2.00;;;1.90;;
10246;SDS011;5168;47.854;7.944;2023-03-16T03:50:32;2.00;;;1.80;;
10246;SDS011;5168;47.854;7.944;2023-03-16T03:52:57;2.23;;;2.00;;
10246;SDS011;5168;47.854;7.944;2023-03-16T03:55:23;1.97;;;1.87;;
10246;SDS011;5168;47.854;7.944;2023-03-16T03:57:49;2.20;;;2.00;;
10246;SDS011;5168;47.854;7.944;2023-03-16T04:00:15;2.10;;;1.90;;
10246;SDS011;5168;47.854;7.944;2023-03-16T04:02:44;2.17;;;2.07;;
10246;SDS011;5168;47.854;7.944;2023-03-16T04:05:10;2.57;;;2.37;;
10246;SDS011;5168;47.854;7.944;2023-03-16T04:07:36;2.00;;;1.90;;
10246;SDS011;5168;47.854;7.944;2023-03-16T04:10:02;2.23;;;2.03;;
10246;SDS011;5168;47.854;7.944;2023-03-16T04:12:29;2.00;;;1.90;;
10246;SDS011;5168;47.854;7.944;2023-03-16T04:14:54;1.83;;;1.73;;
10246;SDS011;5168;47.854;7.944;2023-03-16T04:17:20;2.23;;;2.00;;
10246;SDS011;5168;47.854;7.944;2023-03-16T04:19:47;2.30;;;2.10;;
10246;SDS011;5168;47.854;7.944;2023-03-16T04:22:13;2.90;;;2.47;;
10246;SDS011;5168;47.854;7.944;2023-03-16T04:24:38;2.10;;;1.90;;
10246;SDS011;5168;47.854;7.944;2023-03-16T04:27:07;2.27;;;2.00;;
10246;SDS011;5168;47.854;7.944;2023-03-16T04:29:33;2.00;;;1.90;;
10246;SDS011;5168;47.854;7.944;2023-03-16T04:31:59;2.00;;;1.80;;
10246;SDS011;5168;47.854;7.944;2023-03-16T04:34:25;2.20;;;2.10;;
10246;SDS011;5168;47.854;7.944;2023-03-16T04:36:51;2.37;;;2.10;;
10246;SDS011;5168;47.854;7.944;2023-03-16T04:39:18;3.70;;;2.10;;
10246;SDS011;5168;47.854;7.944;2023-03-16T04:41:44;2.70;;;2.33;;
10246;SDS011;5168;47.854;7.944;2023-03-16T04:44:10;2.50;;;2.30;;
10246;SDS011;5168;47.854;7.944;2023-03-16T04:46:36;2.80;;;2.60;;
10246;SDS011;5168;47.854;7.944;2023-03-16T04:49:02;4.47;;;2.20;;
10246;SDS011;5168;47.854;7.944;2023-03-16T04:51:27;2.80;;;2.50;;
10246;SDS011;5168;47.854;7.944;2023-03-16T04:53:54;3.30;;;2.57;;
10246;SDS011;5168;47.854;7.944;2023-03-16T04:56:19;3.33;;;2.37;;
10246;SDS011;5168;47.854;7.944;2023-03-16T04:58:45;2.40;;;2.20;;
10246;SDS011;5168;47.854;7.944;2023-03-16T05:01:12;2.50;;;2.30;;
10246;SDS011;5168;47.854;7.944;2023-03-16T05:03:37;2.70;;;2.50;;
10246;SDS011;5168;47.854;7.944;2023-03-16T05:06:03;2.50;;;2.30;;
10246;SDS011;5168;47.854;7.944;2023-03-16T05:08:29;4.50;;;2.63;;
10246;SDS011;5168;47.854;7.944;2023-03-16T05:10:55;2.40;;;2.20;;
10246;SDS011;5168;47.854;7.944;2023-03-16T05:13:21;2.20;;;2.00;;
10246;SDS011;5168;47.854;7.944;2023-03-16T05:15:47;3.53;;;2.00;;
10246;SDS011;5168;47.854;7.944;2023-03-16T05:18:13;2.30;;;2.10;;
10246;SDS011;5168;47.854;7.944;2023-03-16T05:20:39;2.40;;;2.20;;
10246;SDS011;5168;47.854;7.944;2023-03-16T05:23:06;2.60;;;2.40;;
10246;SDS011;5168;47.854;7.944;2023-03-16T05:25:32;2.60;;;2.40;;
10246;SDS011;5168;47.854;7.944;2023-03-16T05:27:58;2.60;;;2.40;;
10246;SDS011;5168;47.854;7.944;2023-03-16T05:30:24;3.07;;;1.90;;
10246;SDS011;5168;47.854;7.944;2023-03-16T05:32:50;3.50;;;1.87;;
10246;SDS011;5168;47.854;7.944;2023-03-16T05:35:16;2.50;;;2.30;;
10246;SDS011;5168;47.854;7.944;2023-03-16T05:37:42;2.37;;;2.17;;
10246;SDS011;5168;47.854;7.944;2023-03-16T05:40:09;2.83;;;2.10;;
10246;SDS011;5168;47.854;7.944;2023-03-16T05:42:45;2.53;;;2.30;;
10246;SDS011;5168;47.854;7.944;2023-03-16T05:45:13;2.23;;;2.13;;
10246;SDS011;5168;47.854;7.944;2023-03-16T05:47:40;2.30;;;2.10;;
10246;SDS011;5168;47.854;7.944;2023-03-16T05:50:07;2.33;;;1.93;;
10246;SDS011;5168;47.854;7.944;2023-03-16T05:52:35;2.30;;;2.10;;
10246;SDS011;5168;47.854;7.944;2023-03-16T05:55:02;2.17;;;2.07;;
10246;SDS011;5168;47.854;7.944;2023-03-16T05:57:29;2.20;;;2.10;;
10246;SDS011;5168;47.854;7.944;2023-03-16T05:59:55;2.50;;;2.23;;
10246;SDS011;5168;47.854;7.944;2023-03-16T06:02:21;2.20;;;2.10;;
10246;SDS011;5168;47.854;7.944;2023-03-16T06:04:46;3.73;;;2.60;;
10246;SDS011;5168;47.854;7.944;2023-03-16T06:07:12;2.50;;;2.30;;
10246;SDS011;5168;47.854;7.944;2023-03-16T06:09:37;2.00;;;1.90;;
10246;SDS011;5168;47.854;7.944;2023-03-16T06:12:03;2.70;;;1.90;;
10246;SDS011;5168;47.854;7.944;2023-03-16T06:14:29;2.17;;;1.97;;
10246;SDS011;5168;47.854;7.944;2023-03-16T06:16:55;2.10;;;2.00;;
10246;SDS011;5168;47.854;7.944;2023-03-16T06:19:20;2.10;;;1.90;;
10246;SDS011;5168;47.854;7.944;2023-03-16T06:21:46;2.20;;;2.10;;
10246;SDS011;5168;47.854;7.944;2023-03-16T06:24:12;2.10;;;2.00;;
10246;SDS011;5168;47.854;7.944;2023-03-16T06:26:37;2.00;;;1.90;;
10246;SDS011;5168;47.854;7.944;2023-03-16T06:29:03;2.03;;;1.87;;
10246;SDS011;5168;47.854;7.944;2023-03-16T06:31:29;2.63;;;2.10;;
10246;SDS011;5168;47.854;7.944;2023-03-16T06:33:57;2.87;;;2.30;;
10246;SDS011;5168;47.854;7.944;2023-03-16T06:36:23;1.90;;;1.80;;
10246;SDS011;5168;47.854;7.944;2023-03-16T06:38:49;2.30;;;2.10;;
10246;SDS011;5168;47.854;7.944;2023-03-16T06:41:16;2.80;;;2.20;;
10246;SDS011;5168;47.854;7.944;2023-03-16T06:43:41;2.30;;;2.20;;
10246;SDS011;5168;47.854;7.944;2023-03-16T06:46:07;2.13;;;2.00;;
10246;SDS011;5168;47.854;7.944;2023-03-16T06:48:33;1.90;;;1.80;;
10246;SDS011;5168;47.854;7.944;2023-03-16T06:50:59;2.07;;;1.90;;
10246;SDS011;5168;47.854;7.944;2023-03-16T06:53:25;1.93;;;1.83;;
10246;SDS011;5168;47.854;7.944;2023-03-16T06:55:50;2.20;;;1.80;;
10246;SDS011;5168;47.854;7.944;2023-03-16T06:58:16;2.23;;;2.00;;
10246;SDS011;5168;47.854;7.944;2023-03-16T07:00:42;2.10;;;2.00;;
10246;SDS011;5168;47.854;7.944;2023-03-16T07:03:07;1.87;;;1.70;;
10246;SDS011;5168;47.854;7.944;2023-03-16T07:05:33;2.10;;;1.73;;
10246;SDS011;5168;47.854;7.944;2023-03-16T07:07:59;2.30;;;2.10;;
10246;SDS011;5168;47.854;7.944;2023-03-16T07:10:25;2.83;;;1.83;;
10246;SDS011;5168;47.854;7.944;2023-03-16T07:12:50;2.10;;;1.90;;
10246;SDS011;5168;47.854;7.944;2023-03-16T07:15:16;2.03;;;1.83;;
10246;SDS011;5168;47.854;7.944;2023-03-16T07:17:43;2.43;;;1.90;;
10246;SDS011;5168;47.854;7.944;2023-03-16T07:20:09;1.97;;;1.87;;
10246;SDS011;5168;47.854;7.944;2023-03-16T07:22:36;3.30;;;2.50;;
10246;SDS011;5168;47.854;7.944;2023-03-16T07:25:03;2.27;;;1.70;;
10246;SDS011;5168;47.854;7.944;2023-03-16T07:27:29;3.03;;;1.70;;
10246;SDS011;5168;47.854;7.944;2023-03-16T07:29:55;1.93;;;1.83;;
10246;SDS011;5168;47.854;7.944;2023-03-16T07:32:21;1.90;;;1.80;;
10246;SDS011;5168;47.854;7.944;2023-03-16T07:34:47;1.83;;;1.73;;
10246;SDS011;5168;47.854;7.944;2023-03-16T07:37:13;1.83;;;1.73;;
10246;SDS011;5168;47.854;7.944;2023-03-16T07:39:40;2.77;;;1.83;;
10246;SDS011;5168;47.854;7.944;2023-03-16T07:42:06;2.13;;;1.73;;
10246;SDS011;5168;47.854;7.944;2023-03-16T07:44:32;1.80;;;1.70;;
10246;SDS011;5168;47.854;7.944;2023-03-16T07:46:58;1.80;;;1.70;;
10246;SDS011;5168;47.854;7.944;2023-03-16T07:49:24;1.90;;;1.70;;
10246;SDS011;5168;47.854;7.944;2023-03-16T07:51:49;1.67;;;1.57;;
10246;SDS011;5168;47.854;7.944;2023-03-16T07:54:15;1.87;;;1.77;;
10246;SDS011;5168;47.854;7.944;2023-03-16T07:56:41;1.97;;;1.87;;
10246;SDS011;5168;47.854;7.944;2023-03-16T07:59:06;2.70;;;1.70;;
10246;SDS011;5168;47.854;7.944;2023-03-16T08:01:32;1.80;;;1.70;;
10246;SDS011;5168;47.854;7.944;2023-03-16T08:03:58;2.00;;;1.90;;
10246;SDS011;5168;47.854;7.944;2023-03-16T08:06:25;2.00;;;1.77;;
10246;SDS011;5168;47.854;7.944;2023-03-16T08:08:51;1.90;;;1.80;;
10246;SDS011;5168;47.854;7.944;2023-03-16T08:11:17;3.43;;;1.83;;
10246;SDS011;5168;47.854;7.944;2023-03-16T08:13:50;1.80;;;1.70;;
10246;SDS011;5168;47.854;7.944;2023-03-16T08:16:24;1.80;;;1.70;;
10246;SDS011;5168;47.854;7.944;2023-03-16T08:18:50;2.53;;;1.90;;
10246;SDS011;5168;47.854;7.944;2023-03-16T08:21:17;1.90;;;1.80;;
10246;SDS011;5168;47.854;7.944;2023-03-16T08:23:44;1.70;;;1.60;;
10246;SDS011;5168;47.854;7.944;2023-03-16T08:26:13;2.00;;;1.77;;
10246;SDS011;5168;47.854;7.944;2023-03-16T08:28:46;1.83;;;1.60;;
10246;SDS011;5168;47.854;7.944;2023-03-16T08:31:15;6.63;;;1.77;;
10246;SDS011;5168;47.854;7.944;2023-03-16T08:33:41;1.80;;;1.70;;
10246;SDS011;5168;47.854;7.944;2023-03-16T08:36:08;2.03;;;1.80;;
10246;SDS011;5168;47.854;7.944;2023-03-16T08:38:36;1.70;;;1.60;;
10246;SDS011;5168;47.854;7.944;2023-03-16T08:41:03;2.10;;;1.90;;
10246;SDS011;5168;47.854;7.944;2023-03-16T08:43:29;1.87;;;1.77;;
10246;SDS011;5168;47.854;7.944;2023-03-16T08:45:56;2.20;;;1.63;;
10246;SDS011;5168;47.854;7.944;2023-03-16T08:48:23;1.50;;;1.40;;
10246;SDS011;5168;47.854;7.944;2023-03-16T08:50:49;2.20;;;1.80;;
10246;SDS011;5168;47.854;7.944;2023-03-16T08:53:15;2.10;;;1.70;;
10246;SDS011;5168;47.854;7.944;2023-03-16T08:55:42;1.80;;;1.70;;
10246;SDS011;5168;47.854;7.944;2023-03-16T08:58:09;2.07;;;1.70;;
10246;SDS011;5168;47.854;7.944;2023-03-16T09:00:36;1.70;;;1.60;;
10246;SDS011;5168;47.854;7.944;2023-03-16T09:03:03;1.43;;;1.33;;
10246;SDS011;5168;47.854;7.944;2023-03-16T09:05:28;1.83;;;1.73;;
10246;SDS011;5168;47.854;7.944;2023-03-16T09:07:54;2.03;;;1.80;;
10246;SDS011;5168;47.854;7.944;2023-03-16T09:10:20;1.80;;;1.70;;
10246;SDS011;5168;47.854;7.944;2023-03-16T09:12:47;4.43;;;1.80;;
10246;SDS011;5168;47.854;7.944;2023-03-16T09:15:14;2.93;;;1.80;;
10246;SDS011;5168;47.854;7.944;2023-03-16T09:17:40;1.70;;;1.60;;
10246;SDS011;5168;47.854;7.944;2023-03-16T09:20:07;1.53;;;1.40;;
10246;SDS011;5168;47.854;7.944;2023-03-16T09:22:34;1.60;;;1.50;;
10246;SDS011;5168;47.854;7.944;2023-03-16T09:25:02;1.70;;;1.60;;
10246;SDS011;5168;47.854;7.944;2023-03-16T09:27:30;1.70;;;1.60;;
10246;SDS011;5168;47.854;7.944;2023-03-16T09:29:57;1.60;;;1.50;;
10246;SDS011;5168;47.854;7.944;2023-03-16T09:32:24;1.87;;;1.53;;
10246;SDS011;5168;47.854;7.944;2023-03-16T09:34:51;1.90;;;1.60;;
10246;SDS011;5168;47.854;7.944;2023-03-16T09:37:17;1.63;;;1.53;;
10246;SDS011;5168;47.854;7.944;2023-03-16T09:39:43;2.17;;;1.70;;
10246;SDS011;5168;47.854;7.944;2023-03-16T09:44:55;1.73;;;1.63;;
10246;SDS011;5168;47.854;7.944;2023-03-16T09:47:30;1.93;;;1.67;;
10246;SDS011;5168;47.854;7.944;2023-03-16T09:50:00;2.03;;;1.40;;
10246;SDS011;5168;47.854;7.944;2023-03-16T09:55:21;1.57;;;1.47;;
10246;SDS011;5168;47.854;7.944;2023-03-16T09:57:50;1.50;;;1.40;;
10246;SDS011;5168;47.854;7.944;2023-03-16T10:00:24;2.90;;;1.60;;
10246;SDS011;5168;47.854;7.944;2023-03-16T10:03:01;1.87;;;1.70;;
10246;SDS011;5168;47.854;7.944;2023-03-16T10:05:37;1.67;;;1.57;;
10246;SDS011;5168;47.854;7.944;2023-03-16T10:08:07;1.60;;;1.50;;
10246;SDS011;5168;47.854;7.944;2023-03-16T10:10:41;1.90;;;1.43;;
10246;SDS011;5168;47.854;7.944;2023-03-16T10:13:16;2.23;;;1.53;;
10246;SDS011;5168;47.854;7.944;2023-03-16T10:16:04;2.20;;;1.70;;
10246;SDS011;5168;47.854;7.944;2023-03-16T10:18:44;1.47;;;1.37;;
10246;SDS011;5168;47.854;7.944;2023-03-16T10:21:13;2.33;;;1.60;;
10246;SDS011;5168;47.854;7.944;2023-03-16T10:23:42;1.43;;;1.33;;
10246;SDS011;5168;47.854;7.944;2023-03-16T10:26:14;2.20;;;1.43;;
10246;SDS011;5168;47.854;7.944;2023-03-16T10:28:44;2.20;;;1.57;;
10246;SDS011;5168;47.854;7.944;2023-03-16T10:31:10;2.27;;;1.50;;
10246;SDS011;5168;47.854;7.944;2023-03-16T10:33:36;5.50;;;1.80;;
10246;SDS011;5168;47.854;7.944;2023-03-16T10:41:02;1.53;;;1.43;;
10246;SDS011;5168;47.854;7.944;2023-03-16T10:46:22;1.90;;;1.30;;
10246;SDS011;5168;47.854;7.944;2023-03-16T10:48:52;1.50;;;1.40;;
10246;SDS011;5168;47.854;7.944;2023-03-16T10:51:24;1.50;;;1.40;;
10246;SDS011;5168;47.854;7.944;2023-03-16T10:53:56;1.80;;;1.30;;
10246;SDS011;5168;47.854;7.944;2023-03-16T10:56:43;1.50;;;1.40;;
10246;SDS011;5168;47.854;7.944;2023-03-16T10:59:13;2.03;;;1.50;;
10246;SDS011;5168;47.854;7.944;2023-03-16T11:01:43;1.47;;;1.37;;
10246;SDS011;5168;47.854;7.944;2023-03-16T11:04:13;1.40;;;1.30;;
10246;SDS011;5168;47.854;7.944;2023-03-16T11:06:46;1.50;;;1.33;;
10246;SDS011;5168;47.854;7.944;2023-03-16T11:09:22;1.77;;;1.50;;
10246;SDS011;5168;47.854;7.944;2023-03-16T11:12:13;1.87;;;1.60;;
10246;SDS011;5168;47.854;7.944;2023-03-16T11:14:45;2.20;;;1.40;;
10246;SDS011;5168;47.854;7.944;2023-03-16T11:17:13;1.97;;;1.67;;
10246;SDS011;5168;47.854;7.944;2023-03-16T11:19:52;1.30;;;1.20;;
10246;SDS011;5168;47.854;7.944;2023-03-16T11:22:23;2.80;;;1.57;;
10246;SDS011;5168;47.854;7.944;2023-03-16T11:24:56;1.67;;;1.57;;
10246;SDS011;5168;47.854;7.944;2023-03-16T11:32:48;1.80;;;1.40;;
10246;SDS011;5168;47.854;7.944;2023-03-16T11:45:50;1.87;;;1.27;;
10246;SDS011;5168;47.854;7.944;2023-03-16T11:48:43;1.80;;;1.30;;
10246;SDS011;5168;47.854;7.944;2023-03-16T11:54:02;2.30;;;1.33;;
10246;SDS011;5168;47.854;7.944;2023-03-16T11:56:44;1.40;;;1.30;;
10246;SDS011;5168;47.854;7.944;2023-03-16T12:07:50;1.70;;;1.50;;
10246;SDS011;5168;47.854;7.944;2023-03-16T12:10:48;1.67;;;1.30;;
10246;SDS011;5168;47.854;7.944;2023-03-16T12:16:06;1.30;;;1.20;;
10246;SDS011;5168;47.854;7.944;2023-03-16T12:18:44;1.30;;;1.20;;
10246;SDS011;5168;47.854;7.944;2023-03-16T12:21:16;1.63;;;1.27;;
10246;SDS011;5168;47.854;7.944;2023-03-16T12:26:20;1.30;;;1.20;;
10246;SDS011;5168;47.854;7.944;2023-03-16T12:28:48;3.00;;;1.30;;
10246;SDS011;5168;47.854;7.944;2023-03-16T12:31:17;1.77;;;1.20;;
10246;SDS011;5168;47.854;7.944;2023-03-16T12:33:57;1.53;;;1.30;;
10246;SDS011;5168;47.854;7.944;2023-03-16T12:36:49;1.50;;;1.40;;
10246;SDS011;5168;47.854;7.944;2023-03-16T12:42:13;1.40;;;1.30;;
10246;SDS011;5168;47.854;7.944;2023-03-16T12:44:56;1.30;;;1.20;;
10246;SDS011;5168;47.854;7.944;2023-03-16T12:47:37;1.30;;;1.20;;
10246;SDS011;5168;47.854;7.944;2023-03-16T12:50:25;1.27;;;1.10;;
10246;SDS011;5168;47.854;7.944;2023-03-16T12:52:51;1.47;;;1.20;;
10246;SDS011;5168;47.854;7.944;2023-03-16T12:55:39;1.30;;;1.20;;
10246;SDS011;5168;47.854;7.944;2023-03-16T12:58:08;1.43;;;1.30;;
10246;SDS011;5168;47.854;7.944;2023-03-16T13:00:37;2.23;;;1.50;;
10246;SDS011;5168;47.854;7.944;2023-03-16T13:03:05;1.30;;;1.20;;
10246;SDS011;5168;47.854;7.944;2023-03-16T13:05:43;1.60;;;1.10;;
10246;SDS011;5168;47.854;7.944;2023-03-16T13:08:14;1.47;;;1.37;;
10246;SDS011;5168;47.854;7.944;2023-03-16T13:10:58;1.20;;;1.10;;
10246;SDS011;5168;47.854;7.944;2023-03-16T13:13:33;1.70;;;1.20;;
10246;SDS011;5168;47.854;7.944;2023-03-16T13:16:07;1.57;;;1.30;;
10246;SDS011;5168;47.854;7.944;2023-03-16T13:18:41;1.50;;;1.23;;
10246;SDS011;5168;47.854;7.944;2023-03-16T13:21:19;1.17;;;1.10;;
10246;SDS011;5168;47.854;7.944;2023-03-16T13:23:46;1.50;;;1.23;;
10246;SDS011;5168;47.854;7.944;2023-03-16T13:27:01;1.20;;;1.10;;
10246;SDS011;5168;47.854;7.944;2023-03-16T13:29:19;1.30;;;1.20;;
10246;SDS011;5168;47.854;7.944;2023-03-16T13:31:50;1.40;;;1.30;;
10246;SDS011;5168;47.854;7.944;2023-03-16T13:34:23;1.30;;;1.20;;
10246;SDS011;5168;47.854;7.944;2023-03-16T13:36:52;1.27;;;1.10;;
10246;SDS011;5168;47.854;7.944;2023-03-16T13:39:20;1.30;;;1.20;;
10246;SDS011;5168;47.854;7.944;2023-03-16T13:42:08;1.30;;;1.20;;
10246;SDS011;5168;47.854;7.944;2023-03-16T13:44:44;1.90;;;1.20;;
10246;SDS011;5168;47.854;7.944;2023-03-16T13:47:14;1.40;;;1.17;;
10246;SDS011;5168;47.854;7.944;2023-03-16T13:49:44;1.20;;;1.10;;
10246;SDS011;5168;47.854;7.944;2023-03-16T13:52:25;6.10;;;1.20;;
10246;SDS011;5168;47.854;7.944;2023-03-16T13:54:51;1.83;;;1.50;;
10246;SDS011;5168;47.854;7.944;2023-03-16T13:57:21;1.90;;;1.43;;
10246;SDS011;5168;47.854;7.944;2023-03-16T13:59:49;1.23;;;1.10;;
10246;SDS011;5168;47.854;7.944;2023-03-16T14:02:18;1.20;;;1.10;;
10246;SDS011;5168;47.854;7.944;2023-03-16T14:04:46;1.20;;;1.10;;
10246;SDS011;5168;47.854;7.944;2023-03-16T14:07:14;2.27;;;1.40;;
10246;SDS011;5168;47.854;7.944;2023-03-16T14:09:41;1.30;;;1.20;;
10246;SDS011;5168;47.854;7.944;2023-03-16T14:12:12;1.27;;;1.17;;
10246;SDS011;5168;47.854;7.944;2023-03-16T14:14:39;1.37;;;1.10;;
10246;SDS011;5168;47.854;7.944;2023-03-16T14:17:12;1.57;;;1.13;;
10246;SDS011;5168;47.854;7.944;2023-03-16T14:19:42;2.20;;;1.30;;
10246;SDS011;5168;47.854;7.944;2023-03-16T14:22:24;1.57;;;1.20;;
10246;SDS011;5168;47.854;7.944;2023-03-16T14:24:55;1.40;;;1.30;;
10246;SDS011;5168;47.854;7.944;2023-03-16T14:27:25;1.47;;;1.20;;
10246;SDS011;5168;47.854;7.944;2023-03-16T14:29:58;1.30;;;1.10;;
10246;SDS011;5168;47.854;7.944;2023-03-16T14:32:27;1.13;;;1.03;;
10246;SDS011;5168;47.854;7.944;2023-03-16T14:35:13;1.33;;;1.20;;
10246;SDS011;5168;47.854;7.944;2023-03-16T14:37:41;3.47;;;1.40;;
10246;SDS011;5168;47.854;7.944;2023-03-16T14:40:19;1.43;;;1.23;;
10246;SDS011;5168;47.854;7.944;2023-03-16T14:42:45;1.53;;;1.20;;
10246;SDS011;5168;47.854;7.944;2023-03-16T14:45:11;1.33;;;1.23;;
10246;SDS011;5168;47.854;7.944;2023-03-16T14:47:43;2.10;;;1.40;;
10246;SDS011;5168;47.854;7.944;2023-03-16T14:50:13;1.37;;;1.27;;
10246;SDS011;5168;47.854;7.944;2023-03-16T14:52:41;1.40;;;1.30;;
10246;SDS011;5168;47.854;7.944;2023-03-16T14:55:09;1.40;;;1.30;;
10246;SDS011;5168;47.854;7.944;2023-03-16T14:57:38;1.63;;;1.30;;
10246;SDS011;5168;47.854;7.944;2023-03-16T15:00:06;1.87;;;1.50;;
10246;SDS011;5168;47.854;7.944;2023-03-16T15:02:36;1.50;;;1.40;;
10246;SDS011;5168;47.854;7.944;2023-03-16T15:05:03;2.70;;;1.40;;
10246;SDS011;5168;47.854;7.944;2023-03-16T15:07:30;1.70;;;1.60;;
10246;SDS011;5168;47.854;7.944;2023-03-16T15:12:40;1.47;;;1.30;;
10246;SDS011;5168;47.854;7.944;2023-03-16T15:15:14;1.50;;;1.40;;
10246;SDS011;5168;47.854;7.944;2023-03-16T15:17:42;2.20;;;1.40;;
10246;SDS011;5168;47.854;7.944;2023-03-16T15:20:11;1.60;;;1.50;;
10246;SDS011;5168;47.854;7.944;2023-03-16T15:22:38;1.40;;;1.30;;
10246;SDS011;5168;47.854;7.944;2023-03-16T15:25:18;1.50;;;1.40;;
10246;SDS011;5168;47.854;7.944;2023-03-16T15:27:44;1.40;;;1.30;;
10246;SDS011;5168;47.854;7.944;2023-03-16T15:30:15;1.50;;;1.40;;
10246;SDS011;5168;47.854;7.944;2023-03-16T15:32:41;1.57;;;1.47;;
10246;SDS011;5168;47.854;7.944;2023-03-16T15:35:07;1.60;;;1.50;;
10246;SDS011;5168;47.854;7.944;2023-03-16T15:37:33;2.50;;;1.60;;
10246;SDS011;5168;47.854;7.944;2023-03-16T15:39:58;3.30;;;1.70;;
10246;SDS011;5168;47.854;7.944;2023-03-16T15:42:24;1.40;;;1.30;;
10246;SDS011;5168;47.854;7.944;2023-03-16T15:44:51;1.63;;;1.40;;
10246;SDS011;5168;47.854;7.944;2023-03-16T15:47:17;1.37;;;1.27;;
10246;SDS011;5168;47.854;7.944;2023-03-16T15:49:42;1.70;;;1.60;;
10246;SDS011;5168;47.854;7.944;2023-03-16T15:52:42;1.70;;;1.60;;
10246;SDS011;5168;47.854;7.944;2023-03-16T15:55:02;2.23;;;1.50;;
10246;SDS011;5168;47.854;7.944;2023-03-16T15:57:32;1.50;;;1.40;;
10246;SDS011;5168;47.854;7.944;2023-03-16T15:59:59;1.70;;;1.60;;
10246;SDS011;5168;47.854;7.944;2023-03-16T16:02:26;2.50;;;1.60;;
10246;SDS011;5168;47.854;7.944;2023-03-16T16:04:56;1.60;;;1.50;;
10246;SDS011;5168;47.854;7.944;2023-03-16T16:07:22;1.97;;;1.67;;
10246;SDS011;5168;47.854;7.944;2023-03-16T16:09:48;1.93;;;1.70;;
10246;SDS011;5168;47.854;7.944;2023-03-16T16:12:14;1.70;;;1.60;;
10246;SDS011;5168;47.854;7.944;2023-03-16T16:14:40;1.60;;;1.50;;